This is the latest recevied weather packets stored in our database for station/object IZ1UKX-13. If no packets are shown the sender has not sent any weather packets the latest 10 day(s).
| Time | Temp. | Humidity | Pressure | Rain* | Wind** | Luminosity | Snow |
|---|---|---|---|---|---|---|---|
| 1787739250 | 28.89° C | 63% | 1021 hPa | 0 mm | - | 0 W/m² | - |
| 1787738950 | 28.33° C | 64% | 1021.4 hPa | 0 mm | - | 0 W/m² | - |
| 1787738655 | 27.78° C | 65% | 1021.4 hPa | 0 mm | - | 0 W/m² | - |
| 1787738350 | 27.78° C | 66% | 1021.4 hPa | 0 mm | - | 0 W/m² | - |
| 1787738050 | 27.22° C | 67% | 1021.4 hPa | 0 mm | - | 0 W/m² | - |
| 1787737750 | 27.22° C | 66% | 1021.4 hPa | 0 mm | - | 0 W/m² | - |
| 1787737450 | 27.78° C | 66% | 1021.4 hPa | 0 mm | - | 0 W/m² | - |
| 1787737149 | 27.78° C | 66% | 1021.4 hPa | 0 mm | - | 0 W/m² | - |
| 1787736850 | 27.78° C | 65% | 1021.4 hPa | 0 mm | - | 0 W/m² | - |
| 1787736549 | 28.33° C | 65% | 1021.4 hPa | 0 mm | - | 0 W/m² | - |
| 1787736249 | 27.78° C | 65% | 1021.4 hPa | 0 mm | - | 0 W/m² | - |
| 1787735950 | 27.22° C | 67% | 1021.4 hPa | 0 mm | - | 0 W/m² | - |
| 1787735650 | 27.22° C | 66% | 1021.4 hPa | 0 mm | - | 0 W/m² | - |
| 1787735350 | 27.78° C | 64% | 1021.4 hPa | 0 mm | - | 0 W/m² | - |
| 1787735055 | 27.78° C | 63% | 1021.4 hPa | 0 mm | - | 0 W/m² | - |
| 1787734749 | 27.78° C | 62% | 1021.4 hPa | 0 mm | - | 0 W/m² | - |
| 1787734449 | 28.33° C | 60% | 1021.4 hPa | 0 mm | - | 0 W/m² | - |
| 1787734149 | 29.44° C | 59% | 1021 hPa | 0 mm | - | 0 W/m² | - |
| 1787733849 | 30° C | 57% | 1021 hPa | 0 mm | - | 0 W/m² | - |
| 1787733549 | 31.67° C | 54% | 1020.5 hPa | 0 mm | - | 0 W/m² | - |
| 1787733249 | 31.11° C | 53% | 1021 hPa | 0 mm | - | 0 W/m² | - |
| 1787732950 | 31.11° C | 54% | 1021 hPa | 0 mm | - | 0 W/m² | - |
| 1787732650 | 31.11° C | 53% | 1021 hPa | 0 mm | - | 0 W/m² | - |
| 1787732349 | 31.67° C | 53% | 1020.5 hPa | 0 mm | - | 0 W/m² | - |
| 1787732050 | 31.11° C | 55% | 1021 hPa | 0 mm | - | 0 W/m² | - |
* Rain latest hour (hover to see other rain measurements)
** Current wind speed in m/s (hover to see current wind gust speed)